Time;durP1;ratioP1;P1;durP2;ratioP2;P2;SDS_P1;SDS_P2;PMS_P1;PMS_P2;Temp;Humidity;BMP_temperature;BMP_pressure;BME280_temperature;BME280_humidity;BME280_pressure;Samples;Min_cycle;Max_cycle;Signal;HPM_P1;HPM_P2
2024/03/11 00:01:03;;;;;;;7.70;4.83;;;;;;;10.09;91.24;99476.66;5126925;27;20520;-68
2024/03/11 00:03:34;;;;;;;5.85;4.53;;;;;;;10.12;91.05;99462.69;5132366;27;20444;-68
2024/03/11 00:06:05;;;;;;;5.70;4.15;;;;;;;10.13;90.92;99467.00;5132795;27;20182;-68
2024/03/11 00:08:34;;;;;;;9.67;5.87;;;;;;;10.07;91.47;99467.97;5132440;27;20213;-69
2024/03/11 00:11:05;;;;;;;9.50;5.70;;;;;;;10.09;91.65;99466.66;5133116;27;20939;-67
2024/03/11 00:13:34;;;;;;;13.00;6.40;;;;;;;10.07;91.80;99465.25;5130646;27;20472;-69
2024/03/11 00:16:06;;;;;;;4.35;3.20;;;;;;;9.99;92.44;99463.72;5129070;27;20451;-69
2024/03/11 00:18:35;;;;;;;4.60;2.75;;;;;;;9.92;93.06;99466.50;5135119;27;20223;-68
2024/03/11 00:21:05;;;;;;;7.60;4.07;;;;;;;9.93;93.37;99468.16;5133128;28;20185;-69
2024/03/11 00:23:34;;;;;;;2.97;2.03;;;;;;;9.92;93.82;99461.09;5131155;27;20440;-68
2024/03/11 00:26:03;;;;;;;5.82;5.32;;;;;;;9.96;93.95;99473.13;5136161;27;20428;-68
2024/03/11 00:28:33;;;;;;;6.50;3.13;;;;;;;9.98;93.81;99476.41;5133147;28;20205;-68
2024/03/11 00:31:02;;;;;;;7.20;4.27;;;;;;;9.93;94.36;99473.56;5131128;28;20467;-68
2024/03/11 00:33:30;;;;;;;3.57;2.80;;;;;;;9.95;94.46;99474.16;5132134;28;20432;-69
2024/03/11 00:35:59;;;;;;;5.45;3.67;;;;;;;9.96;94.73;99477.69;5120232;27;20428;-68
2024/03/11 00:38:30;;;;;;;10.48;3.67;;;;;;;9.97;94.85;99474.75;5132033;27;20201;-67
2024/03/11 00:40:59;;;;;;;5.30;2.70;;;;;;;9.99;94.75;99482.63;5125104;28;20601;-67
2024/03/11 00:43:28;;;;;;;4.50;3.10;;;;;;;9.98;94.72;99476.41;5132580;28;20657;-69
2024/03/11 00:45:57;;;;;;;4.82;3.20;;;;;;;9.99;94.92;99483.44;5114278;28;20190;-68
2024/03/11 00:48:27;;;;;;;5.70;3.45;;;;;;;10.02;95.14;99476.78;5107888;28;20213;-69
2024/03/11 00:50:56;;;;;;;5.93;5.03;;;;;;;10.04;95.20;99483.56;5121540;27;20688;-70
2024/03/11 00:53:25;;;;;;;5.80;4.00;;;;;;;10.02;95.42;99480.28;5126785;27;20190;-68
2024/03/11 00:55:55;;;;;;;6.53;3.72;;;;;;;9.95;95.83;99476.88;5125734;27;20434;-68
2024/03/11 00:58:24;;;;;;;4.70;2.70;;;;;;;10.04;95.96;99474.66;5127903;28;20198;-68
2024/03/11 01:01:25;;;;;;;10.50;4.03;;;;;;;9.97;96.08;99463.94;5135179;27;20494;-69
2024/03/11 01:03:54;;;;;;;4.90;4.15;;;;;;;9.88;96.89;99470.72;5125455;28;20193;-68
2024/03/11 01:06:23;;;;;;;13.15;4.47;;;;;;;9.87;97.28;99469.13;5132584;27;20269;-68
2024/03/11 01:08:51;;;;;;;6.90;5.05;;;;;;;9.86;97.31;99467.47;5135192;27;20213;-68
2024/03/11 01:11:21;;;;;;;5.63;3.90;;;;;;;9.83;97.58;99451.69;5132106;28;20186;-68
2024/03/11 01:13:50;;;;;;;11.02;4.75;;;;;;;9.81;97.84;99459.22;5139074;27;20272;-68
2024/03/11 01:16:20;;;;;;;6.80;3.85;;;;;;;9.69;98.69;99447.56;5135973;27;20285;-67
2024/03/11 01:18:49;;;;;;;8.40;4.80;;;;;;;9.61;99.46;99447.91;5133679;27;20672;-69
2024/03/11 01:21:18;;;;;;;6.03;4.30;;;;;;;9.62;99.76;99438.75;5135604;27;20202;-69
2024/03/11 01:23:47;;;;;;;10.88;5.25;;;;;;;9.52;100.00;99435.78;5127071;27;20194;-68
2024/03/11 01:26:16;;;;;;;4.65;3.63;;;;;;;9.47;100.00;99432.94;5128958;27;20190;-67
2024/03/11 01:28:46;;;;;;;4.88;3.42;;;;;;;9.44;100.00;99428.03;5132991;27;20220;-68
2024/03/11 01:31:15;;;;;;;3.13;2.67;;;;;;;9.38;100.00;99423.53;5136114;27;20182;-68
2024/03/11 01:33:45;;;;;;;6.82;4.32;;;;;;;9.39;100.00;99422.50;5136024;27;20189;-68
2024/03/11 01:36:14;;;;;;;3.33;3.03;;;;;;;9.37;100.00;99429.97;5135775;27;20254;-69
2024/03/11 01:38:43;;;;;;;8.70;4.38;;;;;;;9.39;100.00;99428.69;5133163;27;20748;-67
2024/03/11 01:41:12;;;;;;;8.65;4.03;;;;;;;9.38;100.00;99429.75;5135959;27;20197;-68
2024/03/11 01:43:41;;;;;;;5.70;4.40;;;;;;;9.33;100.00;99428.78;5134888;27;20190;-68
2024/03/11 01:46:12;;;;;;;9.45;3.42;;;;;;;9.30;100.00;99435.47;5132902;27;20186;-68
2024/03/11 01:48:41;;;;;;;9.57;4.20;;;;;;;9.26;100.00;99438.84;5129952;27;20268;-68
2024/03/11 01:51:11;;;;;;;4.82;3.22;;;;;;;9.36;100.00;99439.13;5132089;27;20243;-68
2024/03/11 01:53:39;;;;;;;4.65;3.65;;;;;;;9.33;100.00;99443.13;5134758;27;20602;-68
2024/03/11 01:56:08;;;;;;;4.45;4.05;;;;;;;9.37;100.00;99438.06;5131403;27;20197;-68
2024/03/11 01:58:44;;;;;;;5.68;4.60;;;;;;;9.34;100.00;99442.06;5130869;27;20198;-66
2024/03/11 02:01:14;;;;;;;4.95;3.25;;;;;;;9.31;100.00;99447.09;5132761;27;20205;-68
2024/03/11 02:03:47;;;;;;;9.13;5.18;;;;;;;9.32;100.00;99437.94;5128298;27;20193;-68
2024/03/11 02:06:17;;;;;;;6.70;4.18;;;;;;;9.41;100.00;99431.16;5130275;27;20190;-67
2024/03/11 02:08:46;;;;;;;5.88;3.53;;;;;;;9.43;100.00;99429.06;5135522;27;20214;-67
2024/03/11 02:11:14;;;;;;;4.63;3.67;;;;;;;9.44;100.00;99431.50;5134246;27;20250;-68
2024/03/11 02:13:43;;;;;;;6.78;3.70;;;;;;;9.44;100.00;99430.72;5132057;27;20221;-68
2024/03/11 02:16:13;;;;;;;7.30;5.05;;;;;;;9.44;100.00;99430.72;5126057;27;20213;-68
2024/03/11 02:18:42;;;;;;;6.90;3.80;;;;;;;9.50;100.00;99429.78;5130944;27;20693;-68
2024/03/11 02:21:11;;;;;;;7.97;4.32;;;;;;;9.50;100.00;99435.19;5113891;27;20206;-68
2024/03/11 02:23:41;;;;;;;6.90;2.80;;;;;;;9.52;100.00;99433.91;5126311;27;20228;-67
2024/03/11 02:26:11;;;;;;;7.68;3.70;;;;;;;9.57;100.00;99435.91;5123247;27;20190;-69
2024/03/11 02:28:40;;;;;;;3.05;2.40;;;;;;;9.54;100.00;99439.88;5125016;27;20206;-68
2024/03/11 02:31:09;;;;;;;6.20;3.15;;;;;;;9.56;100.00;99439.66;5127143;27;20588;-66
2024/03/11 02:33:39;;;;;;;7.40;3.13;;;;;;;9.67;100.00;99436.19;5131653;27;20686;-68
2024/03/11 02:36:08;;;;;;;6.18;2.67;;;;;;;9.65;100.00;99432.88;5133184;27;20651;-69
2024/03/11 02:38:37;;;;;;;3.88;3.50;;;;;;;9.61;100.00;99445.19;5134597;27;20186;-67
2024/03/11 02:41:08;;;;;;;7.57;2.65;;;;;;;9.69;100.00;99439.44;5132303;27;20191;-68
2024/03/11 02:43:37;;;;;;;5.03;3.35;;;;;;;9.67;100.00;99443.44;5134614;27;20574;-68
2024/03/11 02:46:06;;;;;;;3.72;3.40;;;;;;;9.62;100.00;99438.75;5131663;27;20201;-69
2024/03/11 02:48:37;;;;;;;5.80;4.13;;;;;;;9.61;100.00;99445.19;5127815;27;20663;-68
2024/03/11 02:51:06;;;;;;;4.95;3.63;;;;;;;9.63;100.00;99440.41;5133695;27;20194;-66
2024/03/11 02:53:36;;;;;;;6.45;3.70;;;;;;;9.61;100.00;99431.69;5134289;27;20254;-69
2024/03/11 02:56:08;;;;;;;6.80;3.75;;;;;;;9.58;100.00;99441.06;5130894;27;20228;-68
2024/03/11 02:58:38;;;;;;;7.47;3.60;;;;;;;9.58;100.00;99429.47;5127325;27;20205;-67
2024/03/11 03:01:07;;;;;;;4.93;3.17;;;;;;;9.53;100.00;99432.03;5126798;27;20185;-68
2024/03/11 03:03:37;;;;;;;7.90;4.03;;;;;;;9.57;100.00;99441.31;5128222;27;20567;-68
2024/03/11 03:06:07;;;;;;;6.75;2.35;;;;;;;9.52;100.00;99433.09;5132910;27;20192;-67
2024/03/11 03:08:36;;;;;;;4.20;2.92;;;;;;;9.48;100.00;99430.03;5133538;27;20186;-68
2024/03/11 03:11:06;;;;;;;9.18;3.95;;;;;;;9.52;100.00;99433.09;5125965;27;20191;-67
2024/03/11 03:13:36;;;;;;;4.80;4.40;;;;;;;9.49;100.00;99420.03;5134117;27;20592;-69
2024/03/11 03:16:06;;;;;;;5.70;4.13;;;;;;;9.48;100.00;99427.31;5140757;27;20221;-68
2024/03/11 03:18:35;;;;;;;4.47;3.33;;;;;;;9.52;100.00;99428.50;5132928;27;20610;-68
2024/03/11 03:21:06;;;;;;;6.75;3.83;;;;;;;9.52;100.00;99427.69;5137013;27;20185;-66
2024/03/11 03:23:35;;;;;;;8.55;3.78;;;;;;;9.52;100.00;99433.09;5134483;27;20189;-68
2024/03/11 03:26:04;;;;;;;7.03;5.18;;;;;;;9.52;100.00;99433.09;5134812;27;20273;-68
2024/03/11 03:28:33;;;;;;;5.25;4.35;;;;;;;9.53;100.00;99438.25;5122878;27;20218;-67
2024/03/11 03:31:04;;;;;;;3.65;1.88;;;;;;;9.53;100.00;99429.34;5132345;27;20194;-68
2024/03/11 03:33:33;;;;;;;7.90;6.15;;;;;;;9.50;100.00;99429.78;5131855;27;20196;-68
2024/03/11 03:36:03;;;;;;;3.88;3.50;;;;;;;9.50;100.00;99427.06;5131003;27;20187;-68
2024/03/11 03:38:32;;;;;;;5.80;3.20;;;;;;;9.46;100.00;99428.59;5127827;27;20618;-69
2024/03/11 03:41:01;;;;;;;5.63;3.92;;;;;;;9.48;100.00;99427.31;5128535;27;20194;-68
2024/03/11 03:43:30;;;;;;;9.82;2.58;;;;;;;9.42;100.00;99428.25;5124952;27;20181;-67
2024/03/11 03:45:59;;;;;;;5.57;3.70;;;;;;;9.45;100.00;99433.16;5112298;27;20187;-68
2024/03/11 03:48:30;;;;;;;6.57;3.80;;;;;;;9.46;100.00;99429.41;5133554;27;20667;-68
2024/03/11 03:50:59;;;;;;;4.75;3.30;;;;;;;9.50;100.00;99425.19;5132448;27;20210;-67
2024/03/11 03:53:28;;;;;;;5.22;3.92;;;;;;;9.53;100.00;99437.44;5133908;27;20181;-68
2024/03/11 03:55:57;;;;;;;5.00;3.85;;;;;;;9.51;100.00;99436.84;5114089;27;20190;-68
2024/03/11 03:58:26;;;;;;;5.28;2.63;;;;;;;9.48;100.00;99431.91;5129159;27;20199;-67
2024/03/11 04:00:56;;;;;;;9.43;3.55;;;;;;;9.53;100.00;99437.44;5128813;27;20190;-68
2024/03/11 04:03:27;;;;;;;3.58;3.28;;;;;;;9.50;100.00;99436.00;5132876;27;20289;-68
2024/03/11 04:05:57;;;;;;;3.83;3.42;;;;;;;9.54;100.00;99436.34;5133815;27;20246;-68
2024/03/11 04:08:26;;;;;;;7.28;4.60;;;;;;;9.58;100.00;99437.56;5134149;27;20239;-68
2024/03/11 04:10:55;;;;;;;6.43;3.70;;;;;;;9.51;100.00;99431.44;5124816;27;20198;-68
2024/03/11 04:13:26;;;;;;;6.78;4.80;;;;;;;9.55;100.00;99433.44;5132059;27;20190;-68
2024/03/11 04:15:56;;;;;;;8.10;3.92;;;;;;;9.50;100.00;99440.56;5128992;27;20182;-68
2024/03/11 04:18:25;;;;;;;5.63;3.20;;;;;;;9.60;100.00;99446.25;5124342;27;20194;-68
2024/03/11 04:20:56;;;;;;;4.55;2.55;;;;;;;9.59;100.00;99447.28;5133281;27;20186;-68
2024/03/11 04:23:27;;;;;;;6.18;4.35;;;;;;;9.62;100.00;99452.25;5132039;28;20210;-68
2024/03/11 04:25:57;;;;;;;5.93;3.38;;;;;;;9.54;100.00;99453.38;5128971;28;20234;-68
2024/03/11 04:28:28;;;;;;;6.28;5.63;;;;;;;9.57;100.00;99458.34;5131886;27;20231;-67
2024/03/11 04:30:57;;;;;;;5.45;3.30;;;;;;;9.61;100.00;99469.50;5125115;27;20267;-68
2024/03/11 04:33:27;;;;;;;6.25;3.70;;;;;;;9.66;100.00;99466.94;5117892;28;20191;-69
2024/03/11 04:35:57;;;;;;;7.82;3.88;;;;;;;9.70;100.00;99467.28;5134347;27;20209;-68
2024/03/11 04:38:27;;;;;;;4.60;3.58;;;;;;;9.66;100.00;99458.00;5126415;28;20209;-69
2024/03/11 04:40:56;;;;;;;7.68;4.55;;;;;;;9.70;100.00;99461.88;5125472;28;20190;-68
2024/03/11 04:43:25;;;;;;;11.10;3.42;;;;;;;9.59;100.00;99461.63;5129021;28;20182;-70
2024/03/11 04:45:54;;;;;;;8.80;3.53;;;;;;;9.60;100.00;99467.84;5132332;28;20294;-68
2024/03/11 04:48:23;;;;;;;8.90;4.07;;;;;;;9.67;100.00;99468.59;5134537;27;20189;-67
2024/03/11 04:50:53;;;;;;;8.18;3.38;;;;;;;9.71;100.00;99469.78;5138553;27;20205;-67
2024/03/11 04:53:23;;;;;;;3.75;2.53;;;;;;;9.67;100.00;99468.59;5133835;27;20196;-67
2024/03/11 04:55:53;;;;;;;8.27;4.18;;;;;;;9.68;100.00;99469.41;5127146;27;20560;-67
2024/03/11 04:58:23;;;;;;;2.35;2.15;;;;;;;9.73;100.00;99472.25;5139437;27;20659;-68
2024/03/11 05:00:52;;;;;;;7.45;2.17;;;;;;;9.70;100.00;99470.81;5135477;27;20197;-68
2024/03/11 05:03:21;;;;;;;5.78;2.40;;;;;;;9.69;100.00;99473.75;5127498;27;20225;-68
2024/03/11 05:05:51;;;;;;;5.07;3.08;;;;;;;9.68;100.00;99480.22;5129380;27;20178;-68
2024/03/11 05:08:20;;;;;;;7.80;4.28;;;;;;;9.74;100.00;99485.50;5126182;27;20183;-67
2024/03/11 05:10:51;;;;;;;6.90;3.60;;;;;;;9.75;100.00;99479.06;5129821;27;20752;-68
2024/03/11 05:13:21;;;;;;;7.38;4.03;;;;;;;9.81;100.00;99474.59;5134103;27;20182;-68
2024/03/11 05:15:50;;;;;;;8.00;3.53;;;;;;;9.77;100.00;99479.66;5135440;27;20674;-67
2024/03/11 05:18:22;;;;;;;13.05;4.10;;;;;;;9.75;100.00;99487.16;5131656;27;20656;-67
2024/03/11 05:20:51;;;;;;;4.20;2.90;;;;;;;9.70;100.00;99478.91;5114138;27;20590;-67
2024/03/11 05:23:20;;;;;;;5.43;3.75;;;;;;;9.64;100.00;99479.00;5133152;27;20829;-67
2024/03/11 05:25:51;;;;;;;5.28;4.78;;;;;;;9.69;100.00;99471.03;5134616;27;20198;-67
2024/03/11 05:28:20;;;;;;;12.90;5.55;;;;;;;9.66;100.00;99482.31;5130649;27;20194;-68
2024/03/11 05:30:49;;;;;;;5.70;3.25;;;;;;;9.65;100.00;99492.28;5130382;27;20205;-68
2024/03/11 05:33:20;;;;;;;4.88;4.47;;;;;;;9.62;100.00;99481.97;5131250;27;20220;-67
2024/03/11 05:35:49;;;;;;;5.05;3.10;;;;;;;9.60;100.00;99481.34;5136022;27;20651;-66
2024/03/11 05:38:18;;;;;;;5.03;3.53;;;;;;;9.57;100.00;99492.63;5136033;27;20232;-67
2024/03/11 05:40:49;;;;;;;9.25;3.25;;;;;;;9.68;100.00;99499.97;5135903;27;20193;-68
2024/03/11 05:43:19;;;;;;;4.03;3.20;;;;;;;9.75;100.00;99506.06;5136074;27;20213;-68
2024/03/11 05:45:49;;;;;;;4.22;3.55;;;;;;;9.68;100.00;99505.34;5136578;27;20512;-67
2024/03/11 05:48:18;;;;;;;3.53;2.38;;;;;;;9.65;100.00;99508.50;5131442;27;20186;-67
2024/03/11 05:50:48;;;;;;;4.00;3.50;;;;;;;9.62;100.00;99508.13;5130389;27;20559;-68
2024/03/11 05:53:19;;;;;;;4.13;3.53;;;;;;;9.72;100.00;99522.75;5115497;27;20198;-67
2024/03/11 05:55:48;;;;;;;5.75;2.75;;;;;;;9.73;100.00;99526.28;5135045;27;20182;-67
2024/03/11 05:58:18;;;;;;;6.88;3.80;;;;;;;9.79;100.00;99519.94;5130219;27;20211;-66
2024/03/11 06:00:48;;;;;;;2.67;2.47;;;;;;;9.69;100.00;99525.88;5130386;27;20213;-68
2024/03/11 06:03:17;;;;;;;4.03;3.67;;;;;;;9.75;100.00;99522.28;5130851;27;20474;-68
2024/03/11 06:05:48;;;;;;;3.88;3.45;;;;;;;9.77;100.00;99527.47;5131082;27;20482;-68
2024/03/11 06:08:18;;;;;;;2.67;2.47;;;;;;;9.75;100.00;99526.84;5130249;27;20259;-68
2024/03/11 06:10:47;;;;;;;4.53;4.13;;;;;;;9.72;100.00;99521.91;5131444;27;20262;-67
2024/03/11 06:13:16;;;;;;;3.53;2.58;;;;;;;9.67;100.00;99519.91;5132366;27;20187;-66
2024/03/11 06:15:46;;;;;;;5.50;4.50;;;;;;;9.74;100.00;99522.50;5135264;27;20252;-68
2024/03/11 06:18:15;;;;;;;3.28;2.67;;;;;;;9.69;100.00;99534.00;5124619;27;20591;-66
2024/03/11 06:20:45;;;;;;;8.45;5.00;;;;;;;9.73;100.00;99527.06;5134933;27;20679;-68
2024/03/11 06:23:15;;;;;;;5.22;3.80;;;;;;;9.75;100.00;99529.56;5132979;27;20198;-68
2024/03/11 06:25:45;;;;;;;2.75;2.55;;;;;;;9.79;100.00;99528.84;5125274;27;20248;-68
2024/03/11 06:28:16;;;;;;;4.63;3.43;;;;;;;9.77;100.00;99530.97;5131045;27;20204;-65
2024/03/11 06:30:47;;;;;;;5.68;3.63;;;;;;;9.92;100.00;99534.06;5120474;27;20464;-67
2024/03/11 06:33:16;;;;;;;5.68;5.13;;;;;;;9.92;100.00;99536.75;5124102;27;20656;-67
2024/03/11 06:35:47;;;;;;;4.13;3.70;;;;;;;9.97;100.00;99542.28;5129757;27;20194;-66
2024/03/11 06:38:16;;;;;;;4.93;3.30;;;;;;;9.89;100.00;99542.63;5131364;27;20510;-68
2024/03/11 06:40:45;;;;;;;5.78;5.18;;;;;;;9.97;100.00;99536.91;5125965;27;20427;-68
2024/03/11 06:43:14;;;;;;;4.73;3.00;;;;;;;10.03;100.00;99544.09;5128831;27;20660;-67
2024/03/11 06:45:43;;;;;;;4.10;3.70;;;;;;;10.00;100.00;99547.25;5122569;27;20421;-68
2024/03/11 06:48:13;;;;;;;3.23;2.37;;;;;;;10.10;100.00;99551.28;5130928;27;20428;-68
2024/03/11 06:50:45;;;;;;;5.20;4.20;;;;;;;10.02;100.00;99561.34;5129723;27;20443;-68
2024/03/11 06:53:14;;;;;;;6.27;3.30;;;;;;;10.03;100.00;99560.31;5127778;27;20770;-66
2024/03/11 06:55:43;;;;;;;7.60;4.27;;;;;;;10.07;100.00;99573.38;5132825;27;20442;-68
2024/03/11 06:58:12;;;;;;;3.60;3.20;;;;;;;10.20;100.00;99565.91;5131181;27;20440;-68
2024/03/11 07:00:41;;;;;;;7.07;3.90;;;;;;;10.12;100.00;99576.22;5134231;27;20458;-67
2024/03/11 07:03:10;;;;;;;5.37;4.73;;;;;;;10.27;100.00;99565.78;5134337;27;21137;-68
2024/03/11 07:05:40;;;;;;;5.23;3.47;;;;;;;10.24;100.00;99571.66;5122919;27;20420;-69
2024/03/11 07:08:09;;;;;;;6.82;3.17;;;;;;;10.36;100.00;99569.81;5133367;27;20423;-67
2024/03/11 07:10:38;;;;;;;5.53;3.60;;;;;;;10.37;100.00;99569.56;5133207;27;20213;-68
2024/03/11 07:13:07;;;;;;;4.33;3.93;;;;;;;10.45;100.00;99576.53;5128976;27;20428;-68
2024/03/11 07:15:36;;;;;;;4.70;3.20;;;;;;;10.56;100.00;99564.88;5128618;27;20419;-68
2024/03/11 07:18:08;;;;;;;6.80;4.03;;;;;;;10.43;100.00;99571.34;5132159;27;20439;-67
2024/03/11 07:20:39;;;;;;;4.50;3.27;;;;;;;10.61;100.00;99578.53;5114968;27;20463;-68
2024/03/11 07:23:09;;;;;;;5.73;3.13;;;;;;;10.58;100.00;99579.00;5128876;27;20872;-67
2024/03/11 07:25:38;;;;;;;4.10;3.67;;;;;;;10.66;100.00;99581.38;5130774;27;20986;-68
2024/03/11 07:28:07;;;;;;;8.00;6.30;;;;;;;10.81;100.00;99579.03;5130273;27;21002;-68
2024/03/11 07:30:36;;;;;;;4.20;3.77;;;;;;;11.00;100.00;99573.47;5130248;27;21008;-68
2024/03/11 07:33:06;;;;;;;6.30;4.60;;;;;;;11.06;100.00;99586.91;5130275;27;21019;-67
2024/03/11 07:35:41;;;;;;;6.13;3.67;;;;;;;11.09;100.00;99577.47;5132198;27;20460;-68
2024/03/11 07:38:12;;;;;;;5.50;2.80;;;;;;;11.08;100.00;99582.09;5127042;27;20423;-68
2024/03/11 07:40:41;;;;;;;4.60;4.20;;;;;;;10.99;100.00;99586.19;5127272;27;20451;-68
2024/03/11 07:43:13;;;;;;;3.17;2.73;;;;;;;11.05;100.00;99587.13;5131041;27;20480;-68
2024/03/11 07:45:42;;;;;;;5.67;4.43;;;;;;;11.12;100.00;99590.53;5130273;27;20451;-69
2024/03/11 07:48:12;;;;;;;9.00;4.63;;;;;;;11.22;100.00;99591.59;5101682;27;20436;-68
2024/03/11 07:50:43;;;;;;;6.27;4.40;;;;;;;11.32;100.00;99605.34;5126090;27;20470;-68
2024/03/11 07:53:13;;;;;;;6.37;3.57;;;;;;;11.26;99.73;99606.31;5132104;27;20455;-67
2024/03/11 07:55:42;;;;;;;6.97;6.00;;;;;;;11.20;100.00;99604.53;5121038;27;20829;-68
2024/03/11 07:58:11;;;;;;;5.80;4.30;;;;;;;11.28;99.97;99611.47;5117945;27;20440;-68
2024/03/11 08:00:42;;;;;;;5.53;3.73;;;;;;;11.30;100.00;99609.34;5113859;27;20475;-67
2024/03/11 08:03:11;;;;;;;4.73;4.27;;;;;;;11.42;98.89;99612.06;5135199;27;21006;-68
2024/03/11 08:05:41;;;;;;;7.30;4.00;;;;;;;11.49;98.33;99618.16;5126864;27;20423;-68
2024/03/11 08:08:11;;;;;;;7.23;3.97;;;;;;;11.37;98.76;99626.31;5129009;27;20421;-67
2024/03/11 08:10:40;;;;;;;8.13;4.83;;;;;;;11.40;99.03;99631.25;5133614;27;20443;-70
2024/03/11 08:13:14;;;;;;;5.37;4.00;;;;;;;11.28;99.36;99636.66;5131207;27;20482;-69
2024/03/11 08:15:44;;;;;;;8.60;4.83;;;;;;;11.36;99.45;99646.31;5126835;27;20462;-68
2024/03/11 08:18:14;;;;;;;3.97;3.10;;;;;;;11.35;99.08;99644.66;5131945;27;20427;-70
2024/03/11 08:20:44;;;;;;;10.93;4.57;;;;;;;11.27;99.54;99654.00;5133817;27;20455;-68
2024/03/11 08:23:13;;;;;;;4.90;3.70;;;;;;;11.26;100.00;99649.63;5127537;27;20415;-68
2024/03/11 08:25:47;;;;;;;4.00;3.53;;;;;;;11.32;99.52;99656.81;5132999;27;20430;-68
2024/03/11 08:28:17;;;;;;;3.73;3.43;;;;;;;11.20;100.00;99663.28;5123572;28;20480;-68
2024/03/11 08:30:46;;;;;;;6.13;4.40;;;;;;;11.35;99.83;99660.91;5128755;27;20452;-67
2024/03/11 08:33:15;;;;;;;6.13;3.87;;;;;;;11.38;98.99;99665.84;5130090;27;20459;-67
2024/03/11 08:35:46;;;;;;;6.27;3.00;;;;;;;11.55;98.42;99666.78;5124578;28;20411;-67
2024/03/11 08:38:15;;;;;;;5.07;4.43;;;;;;;11.72;97.07;99667.72;5130747;28;20432;-67
2024/03/11 08:40:44;;;;;;;6.20;4.93;;;;;;;11.57;97.51;99677.41;5127064;28;20471;-66
2024/03/11 08:43:13;;;;;;;7.37;4.73;;;;;;;11.60;97.02;99679.63;5130150;28;20431;-67
2024/03/11 08:45:42;;;;;;;5.90;5.17;;;;;;;11.65;97.46;99671.59;5131475;28;20447;-67
2024/03/11 08:48:13;;;;;;;12.80;6.43;;;;;;;11.89;95.95;99680.53;5135664;27;20778;-66
2024/03/11 08:50:43;;;;;;;6.87;3.97;;;;;;;11.92;94.97;99683.56;5122492;27;20444;-67
2024/03/11 08:53:15;;;;;;;6.53;4.50;;;;;;;11.90;94.97;99682.19;5135357;27;20475;-66
2024/03/11 08:55:44;;;;;;;7.63;5.27;;;;;;;11.79;95.62;99686.56;5120993;28;20452;-68
2024/03/11 08:58:13;;;;;;;6.63;6.00;;;;;;;11.86;95.49;99679.09;5129168;27;20414;-66
2024/03/11 09:00:42;;;;;;;7.90;4.80;;;;;;;11.98;95.06;99695.34;5126594;28;20444;-68
2024/03/11 09:03:11;;;;;;;6.77;4.30;;;;;;;12.12;93.77;99699.44;5134024;28;20427;-68
2024/03/11 09:05:41;;;;;;;4.93;3.47;;;;;;;12.02;93.71;99700.06;5137738;27;20395;-68
2024/03/11 09:08:10;;;;;;;7.73;5.73;;;;;;;12.19;93.16;99703.66;5124794;28;20432;-68
2024/03/11 09:10:41;;;;;;;6.83;5.63;;;;;;;12.24;92.83;99702.13;5123641;27;20795;-68
2024/03/11 09:13:12;;;;;;;6.90;6.20;;;;;;;12.30;91.92;99706.53;5137300;27;20455;-67
2024/03/11 09:15:44;;;;;;;9.50;8.03;;;;;;;12.58;89.88;99710.09;5134002;27;20431;-68
2024/03/11 09:18:15;;;;;;;4.70;3.80;;;;;;;12.74;88.82;99713.88;5128946;28;20432;-68
2024/03/11 09:20:48;;;;;;;9.23;5.40;;;;;;;12.80;87.97;99712.09;5130977;28;20457;-68
2024/03/11 09:23:17;;;;;;;10.07;6.63;;;;;;;12.94;86.42;99716.13;5129579;28;20426;-68
2024/03/11 09:25:48;;;;;;;11.83;7.97;;;;;;;13.15;85.72;99720.88;5118157;27;20830;-67
2024/03/11 09:28:17;;;;;;;12.17;7.40;;;;;;;13.25;84.34;99729.19;5132844;27;20462;-68
2024/03/11 09:30:46;;;;;;;9.93;5.90;;;;;;;13.19;84.18;99735.59;5124810;28;20423;-71
2024/03/11 09:33:15;;;;;;;9.00;6.77;;;;;;;12.94;85.48;99735.13;5126780;27;20498;-68
2024/03/11 09:35:45;;;;;;;12.77;8.37;;;;;;;12.88;85.57;99736.13;5135174;27;20422;-69
2024/03/11 09:38:14;;;;;;;9.30;5.90;;;;;;;12.74;86.35;99738.31;5126652;27;20436;-68
2024/03/11 09:40:43;;;;;;;11.13;7.53;;;;;;;12.94;85.36;99735.13;5111129;27;20466;-67
2024/03/11 09:43:17;;;;;;;11.77;8.30;;;;;;;13.19;83.00;99743.75;5123185;27;20420;-68
2024/03/11 09:45:51;;;;;;;11.43;7.10;;;;;;;13.15;81.66;99745.31;5129588;27;20875;-68
2024/03/11 09:49:27;;;;;;;14.00;9.67;;;;;;;13.31;81.12;99758.06;5134201;27;20853;-68
2024/03/11 09:52:02;;;;;;;7.90;6.67;;;;;;;13.48;79.65;99772.47;5135349;27;20420;-69
2024/03/11 09:54:31;;;;;;;9.73;6.60;;;;;;;13.09;80.66;99768.00;5131838;27;20513;-67
2024/03/11 09:57:00;;;;;;;13.20;7.57;;;;;;;13.05;80.78;99775.00;5136946;27;20462;-68
2024/03/11 09:59:30;;;;;;;11.23;7.20;;;;;;;12.80;81.82;99779.97;5136574;27;20539;-68
2024/03/11 10:02:01;;;;;;;9.93;8.60;;;;;;;12.94;81.92;99784.00;5135522;27;20423;-69
2024/03/11 10:04:30;;;;;;;12.20;7.70;;;;;;;13.43;79.41;99794.13;5131147;27;20489;-67
2024/03/11 10:07:00;;;;;;;17.00;8.23;;;;;;;13.80;77.34;99804.47;5132942;27;20840;-67
2024/03/11 10:09:31;;;;;;;13.27;9.13;;;;;;;14.09;75.28;99805.97;5134723;27;20447;-67
2024/03/11 10:12:03;;;;;;;12.87;8.63;;;;;;;13.86;76.44;99803.47;5136267;27;20406;-68
2024/03/11 10:14:35;;;;;;;11.37;8.57;;;;;;;14.22;75.59;99800.19;5130378;27;20466;-67
2024/03/11 10:17:20;;;;;;;10.37;8.00;;;;;;;14.26;74.12;99812.22;5131373;27;20432;-68
2024/03/11 10:19:53;;;;;;;12.37;7.80;;;;;;;14.35;72.56;99805.25;5128875;27;20421;-67
2024/03/11 10:22:23;;;;;;;10.60;8.10;;;;;;;13.72;74.20;99813.88;5133843;27;20475;-67
2024/03/11 10:24:54;;;;;;;16.37;9.00;;;;;;;13.80;74.52;99809.91;5122064;27;20439;-66
2024/03/11 10:27:24;;;;;;;10.00;7.87;;;;;;;13.89;74.29;99819.31;5129386;27;20726;-67
2024/03/11 10:29:55;;;;;;;9.13;7.57;;;;;;;14.31;73.00;99822.34;5134743;27;20467;-67
2024/03/11 10:32:36;;;;;;;12.60;10.40;;;;;;;14.41;71.63;99821.69;5132065;27;20438;-67
2024/03/11 10:35:09;;;;;;;9.83;7.90;;;;;;;14.40;72.19;99820.03;5133077;27;20816;-68
2024/03/11 10:37:39;;;;;;;10.00;7.83;;;;;;;14.62;70.74;99826.31;5134510;27;20414;-67
2024/03/11 10:40:18;;;;;;;9.70;8.10;;;;;;;14.70;70.37;99826.66;5125815;27;20456;-69
2024/03/11 10:42:53;;;;;;;8.40;7.47;;;;;;;14.20;70.57;99826.00;5126826;27;21029;-66
2024/03/11 10:45:32;;;;;;;10.30;8.40;;;;;;;14.23;70.87;99826.31;5132447;27;20398;-66
2024/03/11 10:48:02;;;;;;;15.63;8.97;;;;;;;14.13;72.17;99826.19;5132671;27;20419;-67
2024/03/11 10:50:33;;;;;;;13.90;10.20;;;;;;;14.44;70.63;99829.31;5134202;27;20971;-67
2024/03/11 10:53:03;;;;;;;12.77;8.00;;;;;;;14.67;69.32;99839.94;5130057;27;20479;-68
2024/03/11 10:55:33;;;;;;;9.33;7.07;;;;;;;14.64;68.77;99845.91;5132774;27;20755;-67
2024/03/11 10:58:03;;;;;;;9.00;7.70;;;;;;;14.76;68.06;99841.19;5127398;27;20446;-67
2024/03/11 11:00:35;;;;;;;14.03;8.43;;;;;;;14.89;67.68;99845.38;5116110;27;20821;-68
2024/03/11 11:03:12;;;;;;;12.50;8.03;;;;;;;14.98;67.31;99850.13;5131983;27;20483;-67
2024/03/11 11:05:50;;;;;;;9.20;7.10;;;;;;;14.88;66.89;99850.00;5136289;27;20424;-67
2024/03/11 11:08:22;;;;;;;10.10;7.50;;;;;;;15.33;66.04;99852.41;5134654;27;20952;-68
2024/03/11 11:10:52;;;;;;;11.57;8.33;;;;;;;14.97;66.64;99851.19;5126920;27;20764;-69
2024/03/11 11:13:24;;;;;;;11.40;8.90;;;;;;;14.78;67.66;99842.56;5134499;27;20455;-67
2024/03/11 11:15:56;;;;;;;9.43;5.93;;;;;;;14.78;67.21;99845.28;5115999;27;20424;-67
2024/03/11 11:18:27;;;;;;;9.37;7.47;;;;;;;14.63;67.93;99852.44;5131163;27;20424;-67
2024/03/11 11:20:58;;;;;;;14.67;9.70;;;;;;;14.21;69.37;99854.84;5130307;27;20436;-68
2024/03/11 11:23:28;;;;;;;10.80;7.93;;;;;;;14.44;69.42;99851.09;5137994;27;20413;-67
2024/03/11 11:25:58;;;;;;;10.30;8.57;;;;;;;14.52;69.33;99867.00;5134020;27;20484;-68
2024/03/11 11:28:29;;;;;;;10.73;8.67;;;;;;;14.43;69.20;99871.22;5135436;27;20507;-66
2024/03/11 11:31:14;;;;;;;13.60;9.20;;;;;;;14.65;68.24;99861.19;5114220;28;20966;-68
2024/03/11 11:33:51;;;;;;;10.13;7.70;;;;;;;15.27;66.34;99869.78;5133051;27;20824;-67
2024/03/11 11:36:56;;;;;;;10.23;6.53;;;;;;;15.61;64.83;99865.75;5134949;27;20459;-67
2024/03/11 11:39:33;;;;;;;10.50;8.43;;;;;;;15.38;64.09;99859.78;5129621;27;20470;-68
2024/03/11 11:42:03;;;;;;;10.53;7.23;;;;;;;15.37;64.66;99869.03;5133719;27;20444;-67
2024/03/11 11:44:53;;;;;;;12.43;8.77;;;;;;;15.50;63.98;99857.72;5143095;27;20780;-67
2024/03/11 11:47:25;;;;;;;9.13;6.73;;;;;;;15.08;65.37;99865.75;5146463;27;20433;-69